createdAt,value
2018-12-17T00:01:08.869Z,-0.80
2018-12-17T00:03:36.426Z,-0.70
2018-12-17T00:06:04.071Z,-0.80
2018-12-17T00:08:32.079Z,-0.90
2018-12-17T00:11:01.782Z,-1.00
2018-12-17T00:13:29.329Z,-1.10
2018-12-17T00:15:57.711Z,-1.10
2018-12-17T00:18:25.464Z,-1.10
2018-12-17T00:20:53.017Z,-1.10
2018-12-17T00:23:20.546Z,-1.10
2018-12-17T00:25:54.598Z,-1.30
2018-12-17T00:28:24.409Z,-1.50
2018-12-17T00:30:53.790Z,-1.60
2018-12-17T00:33:21.664Z,-1.60
2018-12-17T00:35:51.921Z,-1.70
2018-12-17T00:38:22.103Z,-1.80
2018-12-17T00:40:49.667Z,-1.90
2018-12-17T00:43:17.792Z,-1.90
2018-12-17T00:45:47.653Z,-2.00
2018-12-17T00:48:18.018Z,-2.00
2018-12-17T00:50:45.655Z,-2.00
2018-12-17T00:53:13.984Z,-1.90
2018-12-17T00:55:41.571Z,-1.80
2018-12-17T00:58:15.145Z,-1.80
2018-12-17T01:00:39.269Z,-1.80
2018-12-17T01:03:07.837Z,-1.70
2018-12-17T01:05:35.437Z,-1.70
2018-12-17T01:08:07.272Z,-1.70
2018-12-17T01:10:34.876Z,-1.70
2018-12-17T01:13:02.721Z,-1.80
2018-12-17T01:15:33.322Z,-1.90
2018-12-17T01:18:02.295Z,-2.00
2018-12-17T01:20:30.831Z,-2.00
2018-12-17T01:22:59.125Z,-2.10
2018-12-17T01:25:34.197Z,-2.10
2018-12-17T01:28:02.510Z,-2.10
2018-12-17T01:30:40.058Z,-2.20
2018-12-17T01:33:09.859Z,-2.20
2018-12-17T01:35:37.448Z,-2.30
2018-12-17T01:38:13.901Z,-2.30
2018-12-17T01:43:33.142Z,-2.40
2018-12-17T01:46:18.612Z,-2.40
2018-12-17T01:48:49.117Z,-2.40
2018-12-17T01:51:17.659Z,-2.40
2018-12-17T01:53:47.999Z,-2.40
2018-12-17T01:56:15.531Z,-2.50
2018-12-17T01:58:44.047Z,-2.50
2018-12-17T02:01:11.697Z,-2.50
2018-12-17T02:03:39.685Z,-2.40
2018-12-17T02:11:49.626Z,-2.30
2018-12-17T02:14:17.855Z,-2.20
2018-12-17T02:16:45.527Z,-2.30
2018-12-17T02:22:06.704Z,-2.40
2018-12-17T02:24:37.035Z,-2.40
2018-12-17T02:27:05.289Z,-2.50
2018-12-17T02:29:35.150Z,-2.50
2018-12-17T02:32:02.743Z,-2.60
2018-12-17T02:37:21.928Z,-2.60
2018-12-17T02:39:50.262Z,-2.70
2018-12-17T02:50:50.430Z,-2.80
2018-12-17T02:59:07.829Z,-3.00
2018-12-17T03:01:35.406Z,-3.00
2018-12-17T03:04:03.101Z,-3.10
2018-12-17T03:06:31.886Z,-3.10
2018-12-17T03:08:59.511Z,-3.20
2018-12-17T03:11:27.038Z,-3.20
2018-12-17T03:16:34.879Z,-3.10
2018-12-17T03:19:02.495Z,-3.10
2018-12-17T03:35:46.215Z,-3.20
2018-12-17T03:55:52.726Z,-2.80
2018-12-17T04:09:10.274Z,-2.80
2018-12-17T04:11:37.840Z,-2.80
2018-12-17T04:30:49.957Z,-2.70
2018-12-17T04:33:17.516Z,-2.70
2018-12-17T04:47:38.763Z,-2.80
2018-12-17T05:29:26.962Z,-3.20
2018-12-17T05:36:09.798Z,-3.20
2018-12-17T05:56:11.980Z,-2.80
2018-12-17T05:58:39.507Z,-2.80
2018-12-17T06:08:45.283Z,-2.40
2018-12-17T06:14:04.142Z,-2.40
2018-12-17T06:16:34.716Z,-2.30
2018-12-17T06:19:02.300Z,-2.30
2018-12-17T06:21:30.934Z,-2.30
2018-12-17T06:23:58.480Z,-2.40
2018-12-17T06:26:26.046Z,-2.40
2018-12-17T06:28:53.602Z,-2.40
2018-12-17T06:31:31.691Z,-2.60
2018-12-17T06:48:03.119Z,-2.60
2018-12-17T07:07:25.433Z,-3.10
2018-12-17T07:09:54.984Z,-3.10
2018-12-17T07:12:25.636Z,-3.10
2018-12-17T07:14:54.053Z,-3.20
2018-12-17T07:17:22.290Z,-3.20
2018-12-17T07:19:49.844Z,-3.10
2018-12-17T07:22:19.916Z,-3.00
2018-12-17T07:24:47.541Z,-2.90
2018-12-17T07:33:44.941Z,-2.70
2018-12-17T07:36:12.495Z,-2.50
2018-12-17T07:38:41.212Z,-2.50
2018-12-17T07:41:08.735Z,-2.50
2018-12-17T07:43:38.414Z,-2.50
2018-12-17T07:46:08.913Z,-2.40
2018-12-17T07:48:36.437Z,-2.40
2018-12-17T07:51:10.962Z,-2.30
2018-12-17T07:53:39.887Z,-2.10
2018-12-17T07:56:07.417Z,-2.00
2018-12-17T07:58:34.990Z,-1.80
2018-12-17T08:01:02.561Z,-1.70
2018-12-17T08:03:30.087Z,-1.50
2018-12-17T08:05:57.624Z,-1.30
2018-12-17T08:08:25.137Z,-1.10
2018-12-17T08:10:52.711Z,-1.00
2018-12-17T08:13:20.337Z,-0.90
2018-12-17T08:15:47.865Z,-0.80
2018-12-17T08:18:24.806Z,-0.60
2018-12-17T08:20:53.390Z,-0.40
2018-12-17T08:23:20.959Z,-0.40
2018-12-17T08:25:48.480Z,-0.40
2018-12-17T08:28:16.085Z,-0.40
2018-12-17T08:30:43.585Z,-0.40
2018-12-17T08:33:11.802Z,-0.40
2018-12-17T08:35:39.491Z,-0.30
2018-12-17T08:38:06.997Z,-0.40
2018-12-17T08:40:34.547Z,-0.40
2018-12-17T08:43:02.057Z,-0.30
2018-12-17T08:45:30.462Z,-0.20
2018-12-17T08:47:58.317Z,-0.10
2018-12-17T08:50:25.845Z,0.00
2018-12-17T08:52:53.347Z,0.20
2018-12-17T08:55:24.117Z,0.40
2018-12-17T08:57:51.662Z,0.50
2018-12-17T09:00:19.167Z,0.50
2018-12-17T09:02:46.711Z,0.60
2018-12-17T09:05:14.279Z,0.70
2018-12-17T09:07:41.810Z,0.70
2018-12-17T09:10:09.305Z,0.70
2018-12-17T09:12:36.873Z,0.70
2018-12-17T09:15:05.385Z,0.80
2018-12-17T09:17:32.906Z,0.90
2018-12-17T09:20:00.532Z,1.00
2018-12-17T09:22:28.114Z,1.10
2018-12-17T09:24:55.643Z,1.20
2018-12-17T09:27:23.257Z,1.30
2018-12-17T09:29:50.762Z,1.50
2018-12-17T09:32:18.280Z,1.30
2018-12-17T09:34:45.915Z,1.20
2018-12-17T09:37:13.435Z,1.10
2018-12-17T09:39:41.009Z,1.20
2018-12-17T09:42:08.615Z,1.20
2018-12-17T09:44:36.152Z,1.40
2018-12-17T09:47:03.665Z,1.60
2018-12-17T09:49:31.345Z,1.90
2018-12-17T09:51:58.970Z,2.30
2018-12-17T09:54:26.873Z,2.60
2018-12-17T09:56:55.261Z,2.70
2018-12-17T09:59:23.305Z,2.70
2018-12-17T10:01:50.887Z,3.00
2018-12-17T10:04:18.522Z,3.20
2018-12-17T10:06:46.111Z,3.50
2018-12-17T10:09:13.663Z,4.00
2018-12-17T10:11:41.240Z,4.40
2018-12-17T10:14:08.757Z,4.80
2018-12-17T10:16:36.289Z,5.20
2018-12-17T10:19:03.994Z,5.50
2018-12-17T10:21:31.902Z,5.20
2018-12-17T10:23:59.649Z,4.90
2018-12-17T10:26:27.186Z,4.70
2018-12-17T10:28:54.700Z,4.60
2018-12-17T10:31:25.213Z,4.30
2018-12-17T10:33:52.833Z,4.00
2018-12-17T10:36:20.378Z,4.00
2018-12-17T10:38:47.885Z,3.90
2018-12-17T10:41:15.455Z,3.80
2018-12-17T10:43:43.017Z,3.80
2018-12-17T10:46:10.572Z,3.70
2018-12-17T10:48:38.093Z,3.70
2018-12-17T10:51:05.639Z,3.80
2018-12-17T10:53:33.189Z,3.80
2018-12-17T10:56:04.555Z,3.90
2018-12-17T10:58:32.107Z,4.10
2018-12-17T11:01:05.198Z,4.30
2018-12-17T11:03:34.522Z,4.50
2018-12-17T11:06:02.618Z,4.60
2018-12-17T11:08:30.269Z,4.60
2018-12-17T11:10:57.784Z,4.60
2018-12-17T11:13:25.376Z,4.60
2018-12-17T11:15:52.937Z,4.60
2018-12-17T11:18:20.454Z,4.60
2018-12-17T11:20:47.990Z,4.70
2018-12-17T11:23:15.517Z,4.60
2018-12-17T11:25:43.052Z,4.70
2018-12-17T11:28:10.594Z,4.60
2018-12-17T11:30:38.157Z,4.60
2018-12-17T11:33:05.683Z,4.40
2018-12-17T11:35:33.226Z,4.10
2018-12-17T11:38:00.742Z,4.10
2018-12-17T11:40:28.293Z,4.10
2018-12-17T11:42:55.817Z,4.10
2018-12-17T11:45:23.621Z,4.10
2018-12-17T11:47:51.133Z,4.10
2018-12-17T11:50:18.699Z,4.10
2018-12-17T11:52:46.284Z,4.30
2018-12-17T11:55:13.824Z,4.50
2018-12-17T12:00:41.139Z,4.90
2018-12-17T12:03:08.709Z,4.90
2018-12-17T12:05:36.373Z,5.00
2018-12-17T12:08:03.990Z,4.90
2018-12-17T12:10:31.609Z,4.80
2018-12-17T12:12:59.145Z,4.70
2018-12-17T12:15:26.684Z,4.80
2018-12-17T12:17:54.266Z,4.70
2018-12-17T12:20:21.806Z,4.60
2018-12-17T12:22:49.467Z,4.50
2018-12-17T12:25:17.017Z,4.50
2018-12-17T12:27:44.538Z,4.60
2018-12-17T12:30:12.408Z,4.70
2018-12-17T12:32:39.925Z,4.80
2018-12-17T12:35:08.577Z,4.80
2018-12-17T12:37:36.090Z,4.90
2018-12-17T12:40:05.790Z,4.80
2018-12-17T12:42:33.328Z,4.70
2018-12-17T12:45:00.865Z,4.60
2018-12-17T12:47:28.447Z,4.80
2018-12-17T12:49:56.036Z,5.50
2018-12-17T12:52:23.592Z,5.60
2018-12-17T12:54:51.114Z,5.70
2018-12-17T12:57:18.667Z,5.90
2018-12-17T12:59:46.208Z,5.90
2018-12-17T13:02:13.717Z,5.80
2018-12-17T13:04:41.272Z,5.60
2018-12-17T13:07:08.824Z,5.30
2018-12-17T13:09:36.925Z,5.10
2018-12-17T13:12:04.627Z,5.10
2018-12-17T13:14:32.171Z,4.90
2018-12-17T13:17:01.694Z,5.10
2018-12-17T13:19:29.230Z,5.20
2018-12-17T13:21:56.779Z,5.30
2018-12-17T13:24:24.364Z,5.60
2018-12-17T13:26:51.885Z,5.70
2018-12-17T13:29:19.393Z,5.70
2018-12-17T13:31:46.963Z,5.80
2018-12-17T13:34:14.491Z,5.70
2018-12-17T13:36:42.068Z,5.40
2018-12-17T13:39:09.587Z,5.10
2018-12-17T13:41:40.686Z,4.80
2018-12-17T13:44:15.620Z,4.60
2018-12-17T13:46:46.518Z,4.40
2018-12-17T13:49:22.609Z,4.30
2018-12-17T13:51:59.422Z,4.10
2018-12-17T13:54:34.443Z,4.00
2018-12-17T13:57:05.322Z,4.00
2018-12-17T13:59:43.022Z,3.90
2018-12-17T14:02:17.945Z,3.80
2018-12-17T14:04:54.725Z,3.70
2018-12-17T14:07:22.278Z,3.70
2018-12-17T14:09:57.235Z,3.60
2018-12-17T14:12:24.722Z,3.60
2018-12-17T14:14:52.255Z,3.50
2018-12-17T14:17:25.601Z,3.40
2018-12-17T14:19:59.643Z,3.50
2018-12-17T14:22:28.249Z,3.40
2018-12-17T14:24:55.767Z,3.30
2018-12-17T14:27:23.303Z,3.30
2018-12-17T14:30:05.021Z,3.30
2018-12-17T14:32:41.278Z,3.20
2018-12-17T14:35:49.729Z,3.30
2018-12-17T14:38:25.663Z,3.20
2018-12-17T14:41:01.467Z,3.20
2018-12-17T14:43:37.039Z,3.20
2018-12-17T14:46:07.589Z,3.30
2018-12-17T14:48:35.127Z,3.30
2018-12-17T14:51:10.831Z,3.30
2018-12-17T14:53:45.617Z,3.20
2018-12-17T14:56:13.236Z,3.20
2018-12-17T14:58:44.356Z,3.20
2018-12-17T15:01:10.362Z,3.20
2018-12-17T15:03:37.909Z,3.20
2018-12-17T15:06:05.471Z,3.20
2018-12-17T15:08:33.348Z,3.20
2018-12-17T15:11:02.581Z,3.20
2018-12-17T15:13:30.099Z,3.10
2018-12-17T15:15:57.658Z,3.10
2018-12-17T15:18:25.215Z,3.20
2018-12-17T15:20:52.939Z,3.20
2018-12-17T15:23:20.469Z,3.20
2018-12-17T15:25:48.020Z,3.20
2018-12-17T15:28:15.936Z,3.20
2018-12-17T15:30:43.489Z,3.20
2018-12-17T15:33:11.945Z,3.20
2018-12-17T15:35:39.489Z,3.20
2018-12-17T15:38:07.021Z,3.20
2018-12-17T15:40:34.593Z,3.20
2018-12-17T15:43:02.119Z,3.20
2018-12-17T15:45:29.683Z,3.30
2018-12-17T15:47:57.286Z,3.30
2018-12-17T15:50:25.622Z,3.30
2018-12-17T15:52:53.149Z,3.30
2018-12-17T15:55:30.807Z,3.30
2018-12-17T15:58:05.789Z,3.30
2018-12-17T16:00:41.651Z,3.40
2018-12-17T16:03:17.161Z,3.40
2018-12-17T16:05:48.072Z,3.40
2018-12-17T16:08:23.668Z,3.40
2018-12-17T16:11:01.386Z,3.50
2018-12-17T16:13:57.491Z,3.50
2018-12-17T16:16:40.409Z,3.50
2018-12-17T16:19:18.156Z,3.50
2018-12-17T16:21:45.840Z,3.50
2018-12-17T16:24:13.397Z,3.50
2018-12-17T16:26:40.925Z,3.50
2018-12-17T16:29:08.443Z,3.40
2018-12-17T16:31:36.420Z,3.40
2018-12-17T16:34:03.962Z,3.40
2018-12-17T16:36:32.026Z,3.30
2018-12-17T16:38:59.620Z,3.30
2018-12-17T16:41:27.365Z,3.30
2018-12-17T16:43:55.045Z,3.30
2018-12-17T16:46:24.108Z,3.20
2018-12-17T16:48:51.918Z,3.20
2018-12-17T16:51:19.777Z,3.20
2018-12-17T16:53:52.104Z,3.10
2018-12-17T16:56:19.743Z,3.10
2018-12-17T16:58:47.298Z,3.10
2018-12-17T17:01:15.467Z,3.10
2018-12-17T17:03:43.089Z,3.10
2018-12-17T17:06:10.739Z,3.10
2018-12-17T17:08:38.296Z,3.10
2018-12-17T17:11:05.871Z,3.10
2018-12-17T17:13:33.571Z,3.00
2018-12-17T17:16:01.244Z,3.00
2018-12-17T17:18:28.857Z,3.00
2018-12-17T17:20:56.404Z,3.00
2018-12-17T17:31:08.784Z,2.90
2018-12-17T17:37:42.516Z,2.90
2018-12-17T17:40:10.294Z,2.80
2018-12-17T17:42:37.834Z,2.80
2018-12-17T17:45:05.635Z,2.80
2018-12-17T17:47:33.192Z,2.80
2018-12-17T17:50:00.760Z,2.70
2018-12-17T17:52:28.455Z,2.80
2018-12-17T17:54:55.973Z,2.80
2018-12-17T17:57:23.627Z,2.80
2018-12-17T17:59:52.126Z,2.80
2018-12-17T18:02:20.054Z,2.80
2018-12-17T18:04:47.890Z,2.80
2018-12-17T18:07:16.024Z,2.80
2018-12-17T18:09:43.598Z,2.70
2018-12-17T18:12:11.238Z,2.80
2018-12-17T18:14:39.987Z,2.80
2018-12-17T18:17:11.474Z,2.80
2018-12-17T18:19:39.074Z,2.80
2018-12-17T18:22:06.593Z,2.80
2018-12-17T18:24:34.458Z,2.80
2018-12-17T18:27:02.025Z,2.80
2018-12-17T18:29:32.449Z,2.80
2018-12-17T18:32:00.029Z,2.70
2018-12-17T18:34:27.629Z,2.70
2018-12-17T18:36:55.741Z,2.60
2018-12-17T18:39:25.310Z,2.50
2018-12-17T18:41:57.457Z,2.50
2018-12-17T19:02:00.483Z,2.20
2018-12-17T19:04:28.041Z,2.30
2018-12-17T19:06:55.548Z,2.40
2018-12-17T19:09:23.550Z,2.40
2018-12-17T19:11:51.119Z,2.50
2018-12-17T19:14:18.662Z,2.60
2018-12-17T19:16:46.352Z,2.50
2018-12-17T19:19:13.992Z,2.60
2018-12-17T19:21:41.538Z,2.60
2018-12-17T19:24:10.855Z,2.60
2018-12-17T19:26:43.085Z,2.60
2018-12-17T19:29:10.631Z,2.60
2018-12-17T19:31:38.178Z,2.60
2018-12-17T19:34:05.698Z,2.60
2018-12-17T19:36:33.247Z,2.50
2018-12-17T19:39:01.765Z,2.60
2018-12-17T19:41:29.391Z,2.60
2018-12-17T19:44:00.830Z,2.60
2018-12-17T19:46:28.888Z,2.60
2018-12-17T19:48:57.385Z,2.60
2018-12-17T19:51:25.015Z,2.60
2018-12-17T19:53:52.527Z,2.60
2018-12-17T19:56:20.993Z,2.60
2018-12-17T19:58:49.105Z,2.60
2018-12-17T20:01:16.674Z,2.60
2018-12-17T20:03:44.203Z,2.70
2018-12-17T20:06:15.853Z,2.70
2018-12-17T20:08:43.561Z,2.70
2018-12-17T20:11:11.120Z,2.70
2018-12-17T20:13:38.677Z,2.80
2018-12-17T20:16:06.285Z,2.80
2018-12-17T20:18:36.768Z,2.70
2018-12-17T20:21:04.287Z,2.80
2018-12-17T20:23:31.877Z,2.80
2018-12-17T20:25:59.550Z,2.80
2018-12-17T20:28:27.165Z,2.80
2018-12-17T20:30:54.714Z,2.80
2018-12-17T20:33:22.249Z,2.90
2018-12-17T20:35:49.854Z,2.90
2018-12-17T20:38:17.573Z,2.90
2018-12-17T20:40:45.290Z,2.90
2018-12-17T20:43:13.112Z,2.90
2018-12-17T20:45:40.719Z,2.90
2018-12-17T20:48:08.291Z,2.90
2018-12-17T20:50:35.846Z,2.90
2018-12-17T20:53:03.721Z,3.00
2018-12-17T20:55:31.390Z,3.00
2018-12-17T20:57:59.031Z,3.00
2018-12-17T21:00:26.660Z,3.00
2018-12-17T21:03:00.069Z,3.00
2018-12-17T21:05:26.550Z,3.00
2018-12-17T21:07:54.403Z,3.10
2018-12-17T21:10:21.952Z,3.00
2018-12-17T21:12:49.450Z,3.10
2018-12-17T21:15:17.001Z,3.10
2018-12-17T21:17:44.597Z,3.00
2018-12-17T21:20:12.233Z,3.00
2018-12-17T21:22:39.786Z,3.00
2018-12-17T21:25:07.381Z,3.00
2018-12-17T21:27:34.908Z,3.00
2018-12-17T21:30:02.603Z,3.00
2018-12-17T21:32:30.115Z,3.00
2018-12-17T21:34:57.962Z,3.00
2018-12-17T21:37:26.147Z,3.00
2018-12-17T21:39:53.997Z,3.00
2018-12-17T21:42:22.269Z,3.00
2018-12-17T21:44:50.380Z,3.00
2018-12-17T21:47:17.923Z,3.10
2018-12-17T21:49:47.154Z,3.10
2018-12-17T21:52:15.052Z,3.10
2018-12-17T21:54:42.875Z,3.20
2018-12-17T21:57:10.375Z,3.20
2018-12-17T21:59:38.045Z,3.20
2018-12-17T22:02:05.627Z,3.20
2018-12-17T22:04:33.170Z,3.20
2018-12-17T22:07:01.073Z,3.20
2018-12-17T22:09:28.631Z,3.20
2018-12-17T22:11:57.150Z,3.20
2018-12-17T22:14:25.981Z,3.20
2018-12-17T22:16:56.589Z,3.20
2018-12-17T22:19:26.118Z,3.20
2018-12-17T22:21:57.425Z,3.20
2018-12-17T22:24:25.287Z,3.10
2018-12-17T22:26:55.205Z,3.10
2018-12-17T22:29:23.144Z,3.10
2018-12-17T22:31:50.704Z,3.00
2018-12-17T22:34:18.200Z,3.00
2018-12-17T22:36:46.260Z,2.90
2018-12-17T22:39:15.750Z,2.80
2018-12-17T22:41:44.005Z,2.70
2018-12-17T22:44:13.534Z,2.70
2018-12-17T22:46:44.662Z,2.60
2018-12-17T22:49:14.583Z,2.60
2018-12-17T22:51:44.906Z,2.60
2018-12-17T22:54:14.892Z,2.60
2018-12-17T22:56:43.098Z,2.60
2018-12-17T22:59:10.959Z,2.60
2018-12-17T23:01:38.593Z,2.60
2018-12-17T23:04:07.132Z,2.70
2018-12-17T23:06:37.042Z,2.70
2018-12-17T23:09:05.562Z,2.70
2018-12-17T23:11:51.010Z,2.80
2018-12-17T23:14:30.966Z,2.80
2018-12-17T23:17:11.493Z,2.80
2018-12-17T23:19:42.101Z,2.90
2018-12-17T23:22:11.773Z,2.90
2018-12-17T23:24:39.379Z,2.80
2018-12-17T23:27:10.307Z,2.80
2018-12-17T23:29:38.315Z,2.80
2018-12-17T23:32:06.135Z,2.70
2018-12-17T23:34:33.733Z,2.80
2018-12-17T23:37:03.143Z,2.80
2018-12-17T23:39:30.700Z,2.90
2018-12-17T23:42:00.754Z,2.90
2018-12-17T23:44:28.378Z,2.90
2018-12-17T23:47:00.408Z,2.90
2018-12-17T23:49:34.532Z,2.90
2018-12-17T23:52:03.874Z,2.90
2018-12-17T23:54:32.892Z,2.90
2018-12-17T23:57:04.301Z,2.80
2018-12-17T23:59:31.951Z,2.80
